F/V Matmaco — FVNS — position and weather

sailwx.info

Track history (hours):
 
Tides and Currents Weather Stations Pressure Air Temp Water Temp Dewpoint Dewpoint Depression Visibility Wind Speed Wind Dir Waves Ship Positions

F/V Matmaco

Last reported at 2015-Jul-07 01:33 UTC. Time now 2015-Jul-07 02:30 UTC.
Position N 46°51' W 002°60'.

Length 20 m.

Type: Other ship. MMSI: 228194000.

Date/timePositionNaut miles runAvg speedWind from/ knotsBaromVisibWave heightAir tempDewpointWater temp
2015-Jul-07 01:33N 46°51' W 002°60'9 8.4
2015-Jul-07 00:28N 46°59' W 002°53'8 9.1
2015-Jul-06 23:33N 47°06' W 002°46'9 9.2
2015-Jul-06 22:33N 47°14' W 002°39'7 6.9
2015-Jul-06 21:33N 47°18' W 002°31'  
2015-Jul-04 06:33N 47°18' W 002°31'0 0.0
2015-Jul-04 05:33N 47°18' W 002°31'0 0.0
2015-Jul-04 04:33N 47°18' W 002°31'0 0.0
2015-Jul-04 03:32N 47°18' W 002°31'0 0.0
2015-Jul-04 02:33N 47°18' W 002°31'0 0.0
2015-Jul-04 01:33N 47°18' W 002°31'7 6.9
2015-Jul-04 00:33N 47°14' W 002°39'10 9.7
2015-Jul-03 23:32N 47°06' W 002°48'9 8.9
2015-Jul-03 22:33N 46°59' W 002°56'9 8.6
2015-Jul-03 21:33N 46°53' W 003°04'7 7.2
2015-Jul-03 20:33N 46°47' W 003°11'9 0.6
2015-Jul-03 07:24N 46°39' W 003°15'3 2.6
2015-Jul-03 06:21N 46°37' W 003°18'7 3.6
2015-Jul-03 04:18N 46°45' W 003°19'4 3.7
2015-Jul-03 03:20N 46°48' W 003°19'3 3.2
2015-Jul-03 02:32N 46°51' W 003°19'6 2.9
2015-Jul-03 00:29N 46°46' W 003°15'3 3.1
2015-Jul-02 23:30N 46°43' W 003°13'4 0.3
2015-Jul-02 10:05N 46°39' W 003°15'1 1.2
2015-Jul-02 09:24N 46°38' W 003°15'44 5.5
2015-Jul-02 01:23N 47°15' W 002°38'6 7.0
2015-Jul-02 00:33N 47°18' W 002°31'0 0.1
2015-Jul-01 23:33N 47°18' W 002°31'6 6.0
2015-Jul-01 22:33N 47°14' W 002°38'9 9.0
2015-Jul-01 21:33N 47°08' W 002°48'12 8.5
2015-Jul-01 20:06N 47°00' W 003°01'6 8.0
2015-Jul-01 19:20N 46°56' W 003°08'5 6.3
2015-Jul-01 18:29N 46°52' W 003°14'6 4.7
2015-Jul-01 17:16N 46°48' W 003°19'3 3.3
2015-Jul-01 16:27N 46°45' W 003°18'3 1.1
2015-Jul-01 13:29N 46°42' W 003°20'2 1.0
2015-Jul-01 11:21N 46°41' W 003°17'3 0.5
2015-Jul-01 05:09N 46°38' W 003°19'2 3.2
2015-Jul-01 04:33N 46°36' W 003°17'3 3.2
2015-Jul-01 03:32N 46°33' W 003°15'1 0.5
2015-Jul-01 02:25N 46°33' W 003°14'3 3.5
2015-Jul-01 01:33N 46°35' W 003°11'4 3.6
2015-Jul-01 00:33N 46°39' W 003°10'3 2.9
2015-Jun-30 23:32N 46°42' W 003°11'5 3.6
2015-Jun-30 22:14N 46°37' W 003°10'3 3.7
2015-Jun-30 21:30N 46°34' W 003°12'17 1.3
2015-Jun-30 08:33N 46°49' W 003°23'9 9.4
2015-Jun-30 07:33N 46°56' W 003°13'11 9.9
2015-Jun-30 06:27N 47°02' W 003°00'910.0
2015-Jun-30 05:32N 47°08' W 002°49'1010.1
2015-Jun-30 04:32N 47°14' W 002°38'6 6.2
2015-Jun-30 03:33N 47°18' W 002°31'0 0.0
2015-Jun-30 02:33N 47°18' W 002°31'0 0.0
2015-Jun-30 01:33N 47°18' W 002°31'3 2.8
2015-Jun-30 00:32N 47°17' W 002°35'10 9.9
2015-Jun-29 23:33N 47°10' W 002°43'31 9.8
2015-Jun-29 20:22N 46°46' W 003°13'4 3.7
2015-Jun-29 19:21N 46°43' W 003°16'5 2.7
2015-Jun-29 17:33N 46°43' W 003°23'4 3.7
2015-Jun-29 16:32N 46°46' W 003°26'4 3.8
2015-Jun-29 15:32N 46°49' W 003°30'3 2.9
2015-Jun-29 14:33N 46°47' W 003°27'3 3.3
2015-Jun-29 13:33N 46°44' W 003°24'3 2.5
2015-Jun-29 12:10N 46°45' W 003°29'1 2.0
2015-Jun-29 11:33N 46°46' W 003°29'3 2.9
2015-Jun-29 10:33N 46°47' W 003°33'3 2.5
2015-Jun-29 09:33N 46°48' W 003°30'3 3.3
2015-Jun-29 08:33N 46°46' W 003°26'2 2.2
2015-Jun-29 07:33N 46°45' W 003°29'3 3.1
2015-Jun-29 06:33N 46°48' W 003°30'4 3.5
2015-Jun-29 05:21N 46°46' W 003°25'3 3.5
2015-Jun-29 04:32N 46°43' W 003°23'3 3.3
2015-Jun-29 03:31N 46°40' W 003°21'3 2.7
2015-Jun-29 02:33N 46°39' W 003°17'0 0.4
2015-Jun-29 01:33N 46°39' W 003°17'1 0.5
2015-Jun-29 00:33N 46°40' W 003°18'1 0.5
2015-Jun-28 23:33N 46°40' W 003°19'1 0.6
2015-Jun-28 22:33N 46°40' W 003°19'1 1.2
2015-Jun-28 21:33N 46°39' W 003°18'3 2.2
2015-Jun-28 20:20N 46°37' W 003°18'10 3.4
2015-Jun-28 17:32N 46°45' W 003°26'3 2.8
2015-Jun-28 16:30N 46°47' W 003°28'4 3.3
2015-Jun-28 15:19N 46°44' W 003°24'2 2.5
2015-Jun-28 14:27N 46°42' W 003°23'8 1.0
2015-Jun-28 06:33N 46°48' W 003°30'4 3.3
2015-Jun-28 05:29N 46°46' W 003°26'3 3.7
2015-Jun-28 04:33N 46°43' W 003°23'3 3.4
2015-Jun-28 03:33N 46°40' W 003°21'4 1.7
2015-Jun-28 01:28N 46°43' W 003°18'3 3.7
2015-Jun-28 00:33N 46°44' W 003°23'4 3.8
2015-Jun-27 23:27N 46°46' W 003°29'3 3.0
2015-Jun-27 22:30N 46°48' W 003°30'3 3.5
2015-Jun-27 21:33N 46°49' W 003°26'6 6.4
2015-Jun-27 20:33N 46°52' W 003°17'3 2.7
2015-Jun-27 19:33N 46°51' W 003°20'5 5.4
2015-Jun-27 18:33N 46°47' W 003°26'3 3.1
2015-Jun-27 17:30N 46°47' W 003°31'2 1.6
2015-Jun-27 16:33N 46°48' W 003°32'4 3.6
2015-Jun-27 15:33N 46°45' W 003°28'3 2.6
2015-Jun-27 14:25N 46°48' W 003°31'1 0.6
2015-Jun-27 13:33N 46°47' W 003°31'1 0.2
2015-Jun-27 09:26N 46°48' W 003°31'2 1.4
2015-Jun-27 08:04N 46°49' W 003°29'29 8.0
2015-Jun-27 04:28N 47°06' W 002°55'14 9.8
2015-Jun-27 03:05N 47°14' W 002°39'5 9.3
2015-Jun-27 02:31N 47°19' W 002°34'  
Track history (hours):
 
Tides and Currents Weather Stations Pressure Air Temp Water Temp Dewpoint Dewpoint Depression Visibility Wind Speed Wind Dir Waves Ship Positions

F/V Matmaco

Last reported at 2015-Jul-07 01:33 UTC. Time now 2015-Jul-07 02:30 UTC.
Position N 46°51' W 002°60'.

Length 20 m.

Type: Other ship. MMSI: 228194000.

Date/timePositionNaut miles runAvg speedWind from/ knotsBaromVisibWave heightAir tempDewpointWater temp
2015-Jul-07 01:33N 46°51' W 002°60'9 8.4
2015-Jul-07 00:28N 46°59' W 002°53'8 9.1
2015-Jul-06 23:33N 47°06' W 002°46'9 9.2
2015-Jul-06 22:33N 47°14' W 002°39'7 6.9
2015-Jul-06 21:33N 47°18' W 002°31'  
2015-Jul-04 06:33N 47°18' W 002°31'0 0.0
2015-Jul-04 05:33N 47°18' W 002°31'0 0.0
2015-Jul-04 04:33N 47°18' W 002°31'0 0.0
2015-Jul-04 03:32N 47°18' W 002°31'0 0.0
2015-Jul-04 02:33N 47°18' W 002°31'0 0.0
2015-Jul-04 01:33N 47°18' W 002°31'7 6.9
2015-Jul-04 00:33N 47°14' W 002°39'10 9.7
2015-Jul-03 23:32N 47°06' W 002°48'9 8.9
2015-Jul-03 22:33N 46°59' W 002°56'9 8.6
2015-Jul-03 21:33N 46°53' W 003°04'7 7.2
2015-Jul-03 20:33N 46°47' W 003°11'9 0.6
2015-Jul-03 07:24N 46°39' W 003°15'3 2.6
2015-Jul-03 06:21N 46°37' W 003°18'7 3.6
2015-Jul-03 04:18N 46°45' W 003°19'4 3.7
2015-Jul-03 03:20N 46°48' W 003°19'3 3.2
2015-Jul-03 02:32N 46°51' W 003°19'6 2.9
2015-Jul-03 00:29N 46°46' W 003°15'3 3.1
2015-Jul-02 23:30N 46°43' W 003°13'4 0.3
2015-Jul-02 10:05N 46°39' W 003°15'1 1.2
2015-Jul-02 09:24N 46°38' W 003°15'44 5.5
2015-Jul-02 01:23N 47°15' W 002°38'6 7.0
2015-Jul-02 00:33N 47°18' W 002°31'0 0.1
2015-Jul-01 23:33N 47°18' W 002°31'6 6.0
2015-Jul-01 22:33N 47°14' W 002°38'9 9.0
2015-Jul-01 21:33N 47°08' W 002°48'12 8.5
2015-Jul-01 20:06N 47°00' W 003°01'6 8.0
2015-Jul-01 19:20N 46°56' W 003°08'5 6.3
2015-Jul-01 18:29N 46°52' W 003°14'6 4.7
2015-Jul-01 17:16N 46°48' W 003°19'3 3.3
2015-Jul-01 16:27N 46°45' W 003°18'3 1.1
2015-Jul-01 13:29N 46°42' W 003°20'2 1.0
2015-Jul-01 11:21N 46°41' W 003°17'3 0.5
2015-Jul-01 05:09N 46°38' W 003°19'2 3.2
2015-Jul-01 04:33N 46°36' W 003°17'3 3.2
2015-Jul-01 03:32N 46°33' W 003°15'1 0.5
2015-Jul-01 02:25N 46°33' W 003°14'3 3.5
2015-Jul-01 01:33N 46°35' W 003°11'4 3.6
2015-Jul-01 00:33N 46°39' W 003°10'3 2.9
2015-Jun-30 23:32N 46°42' W 003°11'5 3.6
2015-Jun-30 22:14N 46°37' W 003°10'3 3.7
2015-Jun-30 21:30N 46°34' W 003°12'17 1.3
2015-Jun-30 08:33N 46°49' W 003°23'9 9.4
2015-Jun-30 07:33N 46°56' W 003°13'11 9.9
2015-Jun-30 06:27N 47°02' W 003°00'910.0
2015-Jun-30 05:32N 47°08' W 002°49'1010.1
2015-Jun-30 04:32N 47°14' W 002°38'6 6.2
2015-Jun-30 03:33N 47°18' W 002°31'0 0.0
2015-Jun-30 02:33N 47°18' W 002°31'0 0.0
2015-Jun-30 01:33N 47°18' W 002°31'3 2.8
2015-Jun-30 00:32N 47°17' W 002°35'10 9.9
2015-Jun-29 23:33N 47°10' W 002°43'31 9.8
2015-Jun-29 20:22N 46°46' W 003°13'4 3.7
2015-Jun-29 19:21N 46°43' W 003°16'5 2.7
2015-Jun-29 17:33N 46°43' W 003°23'4 3.7
2015-Jun-29 16:32N 46°46' W 003°26'4 3.8
2015-Jun-29 15:32N 46°49' W 003°30'3 2.9
2015-Jun-29 14:33N 46°47' W 003°27'3 3.3
2015-Jun-29 13:33N 46°44' W 003°24'3 2.5
2015-Jun-29 12:10N 46°45' W 003°29'1 2.0
2015-Jun-29 11:33N 46°46' W 003°29'3 2.9
2015-Jun-29 10:33N 46°47' W 003°33'3 2.5
2015-Jun-29 09:33N 46°48' W 003°30'3 3.3
2015-Jun-29 08:33N 46°46' W 003°26'2 2.2
2015-Jun-29 07:33N 46°45' W 003°29'3 3.1
2015-Jun-29 06:33N 46°48' W 003°30'4 3.5
2015-Jun-29 05:21N 46°46' W 003°25'3 3.5
2015-Jun-29 04:32N 46°43' W 003°23'3 3.3
2015-Jun-29 03:31N 46°40' W 003°21'3 2.7
2015-Jun-29 02:33N 46°39' W 003°17'0 0.4
2015-Jun-29 01:33N 46°39' W 003°17'1 0.5
2015-Jun-29 00:33N 46°40' W 003°18'1 0.5
2015-Jun-28 23:33N 46°40' W 003°19'1 0.6
2015-Jun-28 22:33N 46°40' W 003°19'1 1.2
2015-Jun-28 21:33N 46°39' W 003°18'3 2.2
2015-Jun-28 20:20N 46°37' W 003°18'10 3.4
2015-Jun-28 17:32N 46°45' W 003°26'3 2.8
2015-Jun-28 16:30N 46°47' W 003°28'4 3.3
2015-Jun-28 15:19N 46°44' W 003°24'2 2.5
2015-Jun-28 14:27N 46°42' W 003°23'8 1.0
2015-Jun-28 06:33N 46°48' W 003°30'4 3.3
2015-Jun-28 05:29N 46°46' W 003°26'3 3.7
2015-Jun-28 04:33N 46°43' W 003°23'3 3.4
2015-Jun-28 03:33N 46°40' W 003°21'4 1.7
2015-Jun-28 01:28N 46°43' W 003°18'3 3.7
2015-Jun-28 00:33N 46°44' W 003°23'4 3.8
2015-Jun-27 23:27N 46°46' W 003°29'3 3.0
2015-Jun-27 22:30N 46°48' W 003°30'3 3.5
2015-Jun-27 21:33N 46°49' W 003°26'6 6.4
2015-Jun-27 20:33N 46°52' W 003°17'3 2.7
2015-Jun-27 19:33N 46°51' W 003°20'5 5.4
2015-Jun-27 18:33N 46°47' W 003°26'3 3.1
2015-Jun-27 17:30N 46°47' W 003°31'2 1.6
2015-Jun-27 16:33N 46°48' W 003°32'4 3.6
2015-Jun-27 15:33N 46°45' W 003°28'3 2.6
2015-Jun-27 14:25N 46°48' W 003°31'1 0.6
2015-Jun-27 13:33N 46°47' W 003°31'1 0.2
2015-Jun-27 09:26N 46°48' W 003°31'2 1.4
2015-Jun-27 08:04N 46°49' W 003°29'29 8.0
2015-Jun-27 04:28N 47°06' W 002°55'14 9.8
2015-Jun-27 03:05N 47°14' W 002°39'5 9.3
2015-Jun-27 02:31N 47°19' W 002°34'  

Dump ship's entire track history